sensor_id;sensor_type;location;lat;lon;timestamp;P1;durP1;ratioP1;P2;durP2;ratioP2
17380;SDS011;8808;52.478;13.378;2023-10-19T00:02:44;9.90;;;5.83;;
17380;SDS011;8808;52.478;13.378;2023-10-19T00:05:12;9.77;;;5.23;;
17380;SDS011;8808;52.478;13.378;2023-10-19T00:07:41;13.67;;;5.57;;
17380;SDS011;8808;52.478;13.378;2023-10-19T00:10:07;11.30;;;4.97;;
17380;SDS011;8808;52.478;13.378;2023-10-19T00:12:35;14.93;;;6.13;;
17380;SDS011;8808;52.478;13.378;2023-10-19T00:15:03;13.77;;;4.87;;
17380;SDS011;8808;52.478;13.378;2023-10-19T00:17:31;14.77;;;5.93;;
17380;SDS011;8808;52.478;13.378;2023-10-19T00:19:58;16.70;;;6.27;;
17380;SDS011;8808;52.478;13.378;2023-10-19T00:22:51;17.90;;;5.53;;
17380;SDS011;8808;52.478;13.378;2023-10-19T00:25:19;14.43;;;5.27;;
17380;SDS011;8808;52.478;13.378;2023-10-19T00:27:48;16.10;;;6.33;;
17380;SDS011;8808;52.478;13.378;2023-10-19T00:30:15;15.53;;;5.20;;
17380;SDS011;8808;52.478;13.378;2023-10-19T00:32:48;13.80;;;6.30;;
17380;SDS011;8808;52.478;13.378;2023-10-19T00:35:16;11.73;;;4.77;;
17380;SDS011;8808;52.478;13.378;2023-10-19T00:37:55;11.13;;;5.60;;
17380;SDS011;8808;52.478;13.378;2023-10-19T00:40:43;10.83;;;4.93;;
17380;SDS011;8808;52.478;13.378;2023-10-19T00:43:25;13.50;;;5.40;;
17380;SDS011;8808;52.478;13.378;2023-10-19T00:45:54;11.77;;;4.80;;
17380;SDS011;8808;52.478;13.378;2023-10-19T00:48:21;10.13;;;4.80;;
17380;SDS011;8808;52.478;13.378;2023-10-19T00:50:51;14.90;;;5.23;;
17380;SDS011;8808;52.478;13.378;2023-10-19T00:53:33;8.97;;;4.70;;
17380;SDS011;8808;52.478;13.378;2023-10-19T00:56:01;11.27;;;5.37;;
17380;SDS011;8808;52.478;13.378;2023-10-19T00:58:31;13.20;;;5.83;;
17380;SDS011;8808;52.478;13.378;2023-10-19T01:03:36;14.63;;;4.50;;
17380;SDS011;8808;52.478;13.378;2023-10-19T01:06:04;11.87;;;6.10;;
17380;SDS011;8808;52.478;13.378;2023-10-19T01:08:37;14.63;;;6.00;;
17380;SDS011;8808;52.478;13.378;2023-10-19T01:11:10;10.43;;;5.03;;
17380;SDS011;8808;52.478;13.378;2023-10-19T01:13:40;10.27;;;4.57;;
17380;SDS011;8808;52.478;13.378;2023-10-19T01:16:14;10.13;;;5.03;;
17380;SDS011;8808;52.478;13.378;2023-10-19T01:18:48;13.10;;;5.67;;
17380;SDS011;8808;52.478;13.378;2023-10-19T01:21:22;13.17;;;5.03;;
17380;SDS011;8808;52.478;13.378;2023-10-19T01:24:05;23.43;;;5.10;;
17380;SDS011;8808;52.478;13.378;2023-10-19T01:26:32;12.93;;;5.47;;
17380;SDS011;8808;52.478;13.378;2023-10-19T01:29:02;12.37;;;5.50;;
17380;SDS011;8808;52.478;13.378;2023-10-19T01:31:38;10.47;;;5.23;;
17380;SDS011;8808;52.478;13.378;2023-10-19T01:34:16;13.10;;;6.40;;
17380;SDS011;8808;52.478;13.378;2023-10-19T01:36:45;10.47;;;5.00;;
17380;SDS011;8808;52.478;13.378;2023-10-19T01:39:16;11.40;;;5.00;;
17380;SDS011;8808;52.478;13.378;2023-10-19T01:41:44;11.60;;;4.23;;
17380;SDS011;8808;52.478;13.378;2023-10-19T01:44:11;14.27;;;5.40;;
17380;SDS011;8808;52.478;13.378;2023-10-19T01:46:38;13.30;;;5.50;;
17380;SDS011;8808;52.478;13.378;2023-10-19T01:49:09;19.83;;;6.67;;
17380;SDS011;8808;52.478;13.378;2023-10-19T01:51:35;13.73;;;6.33;;
17380;SDS011;8808;52.478;13.378;2023-10-19T01:54:04;14.43;;;5.23;;
17380;SDS011;8808;52.478;13.378;2023-10-19T01:56:33;13.20;;;4.70;;
17380;SDS011;8808;52.478;13.378;2023-10-19T01:59:01;12.87;;;6.10;;
17380;SDS011;8808;52.478;13.378;2023-10-19T02:01:28;18.63;;;6.10;;
17380;SDS011;8808;52.478;13.378;2023-10-19T02:03:56;15.70;;;7.17;;
17380;SDS011;8808;52.478;13.378;2023-10-19T02:06:24;14.93;;;6.93;;
17380;SDS011;8808;52.478;13.378;2023-10-19T02:08:59;20.53;;;6.40;;
17380;SDS011;8808;52.478;13.378;2023-10-19T02:11:35;10.40;;;4.47;;
17380;SDS011;8808;52.478;13.378;2023-10-19T02:14:03;16.40;;;6.47;;
17380;SDS011;8808;52.478;13.378;2023-10-19T02:16:36;14.33;;;6.30;;
17380;SDS011;8808;52.478;13.378;2023-10-19T02:19:03;17.43;;;6.83;;
17380;SDS011;8808;52.478;13.378;2023-10-19T02:21:29;12.57;;;5.73;;
17380;SDS011;8808;52.478;13.378;2023-10-19T02:23:57;22.17;;;6.33;;
17380;SDS011;8808;52.478;13.378;2023-10-19T02:26:23;15.53;;;5.37;;
17380;SDS011;8808;52.478;13.378;2023-10-19T02:28:54;12.10;;;6.00;;
17380;SDS011;8808;52.478;13.378;2023-10-19T02:31:22;15.37;;;6.90;;
17380;SDS011;8808;52.478;13.378;2023-10-19T02:33:50;14.33;;;6.17;;
17380;SDS011;8808;52.478;13.378;2023-10-19T02:36:17;17.23;;;6.30;;
17380;SDS011;8808;52.478;13.378;2023-10-19T02:38:45;16.47;;;6.17;;
17380;SDS011;8808;52.478;13.378;2023-10-19T02:41:16;14.77;;;6.10;;
17380;SDS011;8808;52.478;13.378;2023-10-19T02:43:44;13.70;;;6.30;;
17380;SDS011;8808;52.478;13.378;2023-10-19T02:46:13;16.33;;;7.00;;
17380;SDS011;8808;52.478;13.378;2023-10-19T02:48:42;15.93;;;6.03;;
17380;SDS011;8808;52.478;13.378;2023-10-19T02:51:10;11.93;;;6.10;;
17380;SDS011;8808;52.478;13.378;2023-10-19T02:53:37;16.57;;;6.73;;
17380;SDS011;8808;52.478;13.378;2023-10-19T02:56:11;20.07;;;6.80;;
17380;SDS011;8808;52.478;13.378;2023-10-19T02:58:41;21.40;;;6.40;;
17380;SDS011;8808;52.478;13.378;2023-10-19T03:01:11;19.03;;;7.20;;
17380;SDS011;8808;52.478;13.378;2023-10-19T03:03:54;14.33;;;5.73;;
17380;SDS011;8808;52.478;13.378;2023-10-19T03:06:24;13.23;;;6.53;;
17380;SDS011;8808;52.478;13.378;2023-10-19T03:08:56;13.47;;;5.83;;
17380;SDS011;8808;52.478;13.378;2023-10-19T03:11:22;15.80;;;6.57;;
17380;SDS011;8808;52.478;13.378;2023-10-19T03:13:49;13.10;;;7.10;;
17380;SDS011;8808;52.478;13.378;2023-10-19T03:16:18;13.47;;;5.83;;
17380;SDS011;8808;52.478;13.378;2023-10-19T03:18:45;13.90;;;6.40;;
17380;SDS011;8808;52.478;13.378;2023-10-19T03:21:12;14.07;;;6.10;;
17380;SDS011;8808;52.478;13.378;2023-10-19T03:23:38;19.80;;;7.43;;
17380;SDS011;8808;52.478;13.378;2023-10-19T03:26:06;14.23;;;5.57;;
17380;SDS011;8808;52.478;13.378;2023-10-19T03:28:56;16.57;;;6.37;;
17380;SDS011;8808;52.478;13.378;2023-10-19T03:31:27;14.60;;;5.13;;
17380;SDS011;8808;52.478;13.378;2023-10-19T03:33:55;16.20;;;6.07;;
17380;SDS011;8808;52.478;13.378;2023-10-19T03:36:24;22.60;;;7.17;;
17380;SDS011;8808;52.478;13.378;2023-10-19T03:38:52;13.13;;;5.60;;
17380;SDS011;8808;52.478;13.378;2023-10-19T03:41:20;17.07;;;6.70;;
17380;SDS011;8808;52.478;13.378;2023-10-19T03:43:50;14.33;;;6.73;;
17380;SDS011;8808;52.478;13.378;2023-10-19T03:46:19;15.47;;;6.57;;
17380;SDS011;8808;52.478;13.378;2023-10-19T03:48:55;21.40;;;8.03;;
17380;SDS011;8808;52.478;13.378;2023-10-19T03:51:28;13.67;;;5.67;;
17380;SDS011;8808;52.478;13.378;2023-10-19T03:54:05;11.57;;;5.93;;
17380;SDS011;8808;52.478;13.378;2023-10-19T03:56:48;12.43;;;6.87;;
17380;SDS011;8808;52.478;13.378;2023-10-19T03:59:15;16.73;;;7.90;;
17380;SDS011;8808;52.478;13.378;2023-10-19T04:01:42;20.13;;;7.60;;
17380;SDS011;8808;52.478;13.378;2023-10-19T04:04:11;11.93;;;5.13;;
17380;SDS011;8808;52.478;13.378;2023-10-19T04:06:38;11.43;;;5.50;;
17380;SDS011;8808;52.478;13.378;2023-10-19T04:09:06;20.30;;;7.23;;
17380;SDS011;8808;52.478;13.378;2023-10-19T04:11:35;15.03;;;7.10;;
17380;SDS011;8808;52.478;13.378;2023-10-19T04:14:13;20.53;;;7.53;;
17380;SDS011;8808;52.478;13.378;2023-10-19T04:16:40;14.40;;;6.37;;
17380;SDS011;8808;52.478;13.378;2023-10-19T04:19:08;18.90;;;7.20;;
17380;SDS011;8808;52.478;13.378;2023-10-19T04:21:36;18.67;;;8.43;;
17380;SDS011;8808;52.478;13.378;2023-10-19T04:24:05;12.60;;;5.83;;
17380;SDS011;8808;52.478;13.378;2023-10-19T04:26:32;23.17;;;7.23;;
17380;SDS011;8808;52.478;13.378;2023-10-19T04:29:02;12.73;;;5.80;;
17380;SDS011;8808;52.478;13.378;2023-10-19T04:31:35;18.77;;;7.53;;
17380;SDS011;8808;52.478;13.378;2023-10-19T04:34:03;21.03;;;8.20;;
17380;SDS011;8808;52.478;13.378;2023-10-19T04:36:32;20.33;;;8.43;;
17380;SDS011;8808;52.478;13.378;2023-10-19T04:39:02;15.27;;;6.73;;
17380;SDS011;8808;52.478;13.378;2023-10-19T04:41:29;15.17;;;7.80;;
17380;SDS011;8808;52.478;13.378;2023-10-19T04:43:56;20.77;;;8.07;;
17380;SDS011;8808;52.478;13.378;2023-10-19T04:46:25;18.53;;;7.93;;
17380;SDS011;8808;52.478;13.378;2023-10-19T04:48:55;19.90;;;8.97;;
17380;SDS011;8808;52.478;13.378;2023-10-19T04:51:22;22.60;;;7.53;;
17380;SDS011;8808;52.478;13.378;2023-10-19T04:53:49;21.80;;;8.53;;
17380;SDS011;8808;52.478;13.378;2023-10-19T04:56:17;27.70;;;8.40;;
17380;SDS011;8808;52.478;13.378;2023-10-19T04:58:44;19.13;;;7.77;;
17380;SDS011;8808;52.478;13.378;2023-10-19T05:01:12;14.90;;;6.97;;
17380;SDS011;8808;52.478;13.378;2023-10-19T05:03:40;19.60;;;7.40;;
17380;SDS011;8808;52.478;13.378;2023-10-19T05:06:08;21.17;;;8.43;;
17380;SDS011;8808;52.478;13.378;2023-10-19T05:08:35;20.17;;;7.73;;
17380;SDS011;8808;52.478;13.378;2023-10-19T05:11:03;23.40;;;7.30;;
17380;SDS011;8808;52.478;13.378;2023-10-19T05:13:31;17.23;;;7.93;;
17380;SDS011;8808;52.478;13.378;2023-10-19T05:15:59;19.07;;;8.00;;
17380;SDS011;8808;52.478;13.378;2023-10-19T05:18:26;19.77;;;7.00;;
17380;SDS011;8808;52.478;13.378;2023-10-19T05:20:53;20.27;;;7.83;;
17380;SDS011;8808;52.478;13.378;2023-10-19T05:23:22;19.17;;;7.47;;
17380;SDS011;8808;52.478;13.378;2023-10-19T05:25:50;17.67;;;8.13;;
17380;SDS011;8808;52.478;13.378;2023-10-19T05:28:18;16.17;;;7.03;;
17380;SDS011;8808;52.478;13.378;2023-10-19T05:30:48;21.97;;;8.00;;
17380;SDS011;8808;52.478;13.378;2023-10-19T05:33:15;14.53;;;6.37;;
17380;SDS011;8808;52.478;13.378;2023-10-19T05:35:45;19.37;;;7.20;;
17380;SDS011;8808;52.478;13.378;2023-10-19T05:38:12;21.70;;;8.57;;
17380;SDS011;8808;52.478;13.378;2023-10-19T05:40:39;18.70;;;7.80;;
17380;SDS011;8808;52.478;13.378;2023-10-19T05:43:08;16.30;;;7.93;;
17380;SDS011;8808;52.478;13.378;2023-10-19T05:45:35;21.90;;;8.23;;
17380;SDS011;8808;52.478;13.378;2023-10-19T05:48:04;19.07;;;8.07;;
17380;SDS011;8808;52.478;13.378;2023-10-19T05:50:31;18.00;;;6.63;;
17380;SDS011;8808;52.478;13.378;2023-10-19T05:52:59;16.93;;;8.10;;
17380;SDS011;8808;52.478;13.378;2023-10-19T05:55:26;15.43;;;7.00;;
17380;SDS011;8808;52.478;13.378;2023-10-19T05:57:54;21.53;;;7.97;;
17380;SDS011;8808;52.478;13.378;2023-10-19T06:00:21;19.70;;;8.27;;
17380;SDS011;8808;52.478;13.378;2023-10-19T06:02:51;20.33;;;7.40;;
17380;SDS011;8808;52.478;13.378;2023-10-19T06:05:20;22.00;;;8.17;;
17380;SDS011;8808;52.478;13.378;2023-10-19T06:07:47;25.10;;;9.83;;
17380;SDS011;8808;52.478;13.378;2023-10-19T06:10:15;22.43;;;9.03;;
17380;SDS011;8808;52.478;13.378;2023-10-19T06:12:45;18.30;;;7.53;;
17380;SDS011;8808;52.478;13.378;2023-10-19T06:15:15;24.00;;;9.80;;
17380;SDS011;8808;52.478;13.378;2023-10-19T06:17:43;24.23;;;9.67;;
17380;SDS011;8808;52.478;13.378;2023-10-19T06:20:11;18.00;;;7.60;;
17380;SDS011;8808;52.478;13.378;2023-10-19T06:22:50;21.90;;;9.40;;
17380;SDS011;8808;52.478;13.378;2023-10-19T06:25:17;17.37;;;8.13;;
17380;SDS011;8808;52.478;13.378;2023-10-19T06:27:46;16.37;;;8.20;;
17380;SDS011;8808;52.478;13.378;2023-10-19T06:30:14;19.70;;;8.30;;
17380;SDS011;8808;52.478;13.378;2023-10-19T06:32:44;18.27;;;7.97;;
17380;SDS011;8808;52.478;13.378;2023-10-19T06:35:13;17.33;;;7.90;;
17380;SDS011;8808;52.478;13.378;2023-10-19T06:37:40;16.90;;;7.80;;
17380;SDS011;8808;52.478;13.378;2023-10-19T06:40:10;34.97;;;10.47;;
17380;SDS011;8808;52.478;13.378;2023-10-19T06:42:40;18.27;;;7.80;;
17380;SDS011;8808;52.478;13.378;2023-10-19T06:45:07;24.40;;;9.27;;
17380;SDS011;8808;52.478;13.378;2023-10-19T06:47:39;25.23;;;8.87;;
17380;SDS011;8808;52.478;13.378;2023-10-19T06:50:06;15.83;;;8.17;;
17380;SDS011;8808;52.478;13.378;2023-10-19T06:52:35;18.90;;;8.43;;
17380;SDS011;8808;52.478;13.378;2023-10-19T06:55:02;13.57;;;6.43;;
17380;SDS011;8808;52.478;13.378;2023-10-19T06:57:31;21.63;;;8.43;;
17380;SDS011;8808;52.478;13.378;2023-10-19T06:59:59;20.80;;;9.03;;
17380;SDS011;8808;52.478;13.378;2023-10-19T07:02:35;24.57;;;7.87;;
17380;SDS011;8808;52.478;13.378;2023-10-19T07:05:03;15.23;;;7.10;;
17380;SDS011;8808;52.478;13.378;2023-10-19T07:07:30;22.50;;;7.97;;
17380;SDS011;8808;52.478;13.378;2023-10-19T07:09:57;14.83;;;6.70;;
17380;SDS011;8808;52.478;13.378;2023-10-19T07:12:24;21.33;;;8.00;;
17380;SDS011;8808;52.478;13.378;2023-10-19T07:14:53;20.00;;;7.73;;
17380;SDS011;8808;52.478;13.378;2023-10-19T07:17:20;19.27;;;9.83;;
17380;SDS011;8808;52.478;13.378;2023-10-19T07:19:47;22.77;;;8.87;;
17380;SDS011;8808;52.478;13.378;2023-10-19T07:22:14;17.27;;;8.10;;
17380;SDS011;8808;52.478;13.378;2023-10-19T07:24:42;20.10;;;8.77;;
17380;SDS011;8808;52.478;13.378;2023-10-19T07:27:09;23.00;;;9.07;;
17380;SDS011;8808;52.478;13.378;2023-10-19T07:29:43;19.37;;;7.37;;
17380;SDS011;8808;52.478;13.378;2023-10-19T07:32:11;25.67;;;10.33;;
17380;SDS011;8808;52.478;13.378;2023-10-19T07:34:39;15.67;;;7.00;;
17380;SDS011;8808;52.478;13.378;2023-10-19T07:37:06;20.33;;;8.67;;
17380;SDS011;8808;52.478;13.378;2023-10-19T07:39:33;17.10;;;7.67;;
17380;SDS011;8808;52.478;13.378;2023-10-19T07:42:00;22.60;;;9.37;;
17380;SDS011;8808;52.478;13.378;2023-10-19T07:44:32;20.90;;;9.23;;
17380;SDS011;8808;52.478;13.378;2023-10-19T07:46:59;17.60;;;7.97;;
17380;SDS011;8808;52.478;13.378;2023-10-19T07:49:28;22.47;;;9.23;;
17380;SDS011;8808;52.478;13.378;2023-10-19T07:51:55;18.00;;;8.80;;
17380;SDS011;8808;52.478;13.378;2023-10-19T07:54:22;20.50;;;8.40;;
17380;SDS011;8808;52.478;13.378;2023-10-19T07:56:49;17.67;;;8.00;;
17380;SDS011;8808;52.478;13.378;2023-10-19T07:59:16;27.37;;;10.07;;
17380;SDS011;8808;52.478;13.378;2023-10-19T08:01:43;24.10;;;9.70;;
17380;SDS011;8808;52.478;13.378;2023-10-19T08:04:11;24.97;;;9.57;;
17380;SDS011;8808;52.478;13.378;2023-10-19T08:06:39;16.00;;;8.20;;
17380;SDS011;8808;52.478;13.378;2023-10-19T08:09:06;19.93;;;8.53;;
17380;SDS011;8808;52.478;13.378;2023-10-19T08:11:36;30.90;;;10.47;;
17380;SDS011;8808;52.478;13.378;2023-10-19T08:14:03;26.43;;;9.47;;
17380;SDS011;8808;52.478;13.378;2023-10-19T08:16:31;16.27;;;8.47;;
17380;SDS011;8808;52.478;13.378;2023-10-19T08:18:58;35.57;;;9.20;;
17380;SDS011;8808;52.478;13.378;2023-10-19T08:21:25;21.37;;;9.03;;
17380;SDS011;8808;52.478;13.378;2023-10-19T08:23:55;16.70;;;7.67;;
17380;SDS011;8808;52.478;13.378;2023-10-19T08:26:22;24.17;;;9.47;;
17380;SDS011;8808;52.478;13.378;2023-10-19T08:28:49;21.20;;;7.27;;
17380;SDS011;8808;52.478;13.378;2023-10-19T08:31:16;22.43;;;7.73;;
17380;SDS011;8808;52.478;13.378;2023-10-19T08:33:43;26.97;;;7.37;;
17380;SDS011;8808;52.478;13.378;2023-10-19T08:36:17;23.63;;;9.03;;
17380;SDS011;8808;52.478;13.378;2023-10-19T08:38:45;21.97;;;10.50;;
17380;SDS011;8808;52.478;13.378;2023-10-19T08:41:14;12.57;;;6.47;;
17380;SDS011;8808;52.478;13.378;2023-10-19T08:43:41;18.40;;;7.17;;
17380;SDS011;8808;52.478;13.378;2023-10-19T08:46:08;19.63;;;8.17;;
17380;SDS011;8808;52.478;13.378;2023-10-19T08:48:37;18.60;;;7.27;;
17380;SDS011;8808;52.478;13.378;2023-10-19T08:51:06;25.33;;;8.83;;
17380;SDS011;8808;52.478;13.378;2023-10-19T08:53:36;22.30;;;9.77;;
17380;SDS011;8808;52.478;13.378;2023-10-19T08:56:05;16.03;;;8.13;;
17380;SDS011;8808;52.478;13.378;2023-10-19T08:58:38;17.23;;;7.93;;
17380;SDS011;8808;52.478;13.378;2023-10-19T09:01:06;17.17;;;7.73;;
17380;SDS011;8808;52.478;13.378;2023-10-19T09:03:35;22.40;;;7.93;;
17380;SDS011;8808;52.478;13.378;2023-10-19T09:06:04;18.57;;;7.80;;
17380;SDS011;8808;52.478;13.378;2023-10-19T09:08:31;16.00;;;7.63;;
17380;SDS011;8808;52.478;13.378;2023-10-19T09:11:05;19.87;;;8.83;;
17380;SDS011;8808;52.478;13.378;2023-10-19T09:13:43;14.40;;;6.20;;
17380;SDS011;8808;52.478;13.378;2023-10-19T09:16:12;23.00;;;8.83;;
17380;SDS011;8808;52.478;13.378;2023-10-19T09:18:40;16.30;;;7.17;;
17380;SDS011;8808;52.478;13.378;2023-10-19T09:21:07;17.03;;;8.07;;
17380;SDS011;8808;52.478;13.378;2023-10-19T09:23:36;18.47;;;8.13;;
17380;SDS011;8808;52.478;13.378;2023-10-19T09:26:04;16.60;;;6.83;;
17380;SDS011;8808;52.478;13.378;2023-10-19T09:28:34;18.17;;;8.13;;
17380;SDS011;8808;52.478;13.378;2023-10-19T09:31:03;13.53;;;6.60;;
17380;SDS011;8808;52.478;13.378;2023-10-19T09:33:31;16.60;;;7.03;;
17380;SDS011;8808;52.478;13.378;2023-10-19T09:36:00;21.30;;;8.77;;
17380;SDS011;8808;52.478;13.378;2023-10-19T09:38:29;16.13;;;7.23;;
17380;SDS011;8808;52.478;13.378;2023-10-19T09:40:57;18.57;;;7.17;;
17380;SDS011;8808;52.478;13.378;2023-10-19T09:43:29;17.07;;;7.57;;
17380;SDS011;8808;52.478;13.378;2023-10-19T09:46:00;25.30;;;8.60;;
17380;SDS011;8808;52.478;13.378;2023-10-19T09:48:33;17.87;;;6.30;;
17380;SDS011;8808;52.478;13.378;2023-10-19T09:51:05;15.43;;;8.27;;
17380;SDS011;8808;52.478;13.378;2023-10-19T09:53:33;13.70;;;6.60;;
17380;SDS011;8808;52.478;13.378;2023-10-19T09:56:03;14.40;;;6.50;;
17380;SDS011;8808;52.478;13.378;2023-10-19T09:58:34;15.00;;;7.23;;
17380;SDS011;8808;52.478;13.378;2023-10-19T10:01:04;15.33;;;6.53;;
17380;SDS011;8808;52.478;13.378;2023-10-19T10:03:46;18.77;;;8.40;;
17380;SDS011;8808;52.478;13.378;2023-10-19T10:06:14;25.83;;;9.33;;
17380;SDS011;8808;52.478;13.378;2023-10-19T10:08:45;14.43;;;6.83;;
17380;SDS011;8808;52.478;13.378;2023-10-19T10:11:13;18.73;;;7.67;;
17380;SDS011;8808;52.478;13.378;2023-10-19T10:13:45;23.47;;;8.37;;
17380;SDS011;8808;52.478;13.378;2023-10-19T10:16:17;17.27;;;7.60;;
17380;SDS011;8808;52.478;13.378;2023-10-19T10:18:46;18.77;;;8.30;;
17380;SDS011;8808;52.478;13.378;2023-10-19T10:21:16;16.97;;;8.53;;
17380;SDS011;8808;52.478;13.378;2023-10-19T10:23:46;19.23;;;8.43;;
17380;SDS011;8808;52.478;13.378;2023-10-19T10:26:15;17.53;;;8.37;;
17380;SDS011;8808;52.478;13.378;2023-10-19T10:28:45;14.77;;;6.73;;
17380;SDS011;8808;52.478;13.378;2023-10-19T10:31:14;17.23;;;7.60;;
17380;SDS011;8808;52.478;13.378;2023-10-19T10:33:48;19.10;;;9.00;;
17380;SDS011;8808;52.478;13.378;2023-10-19T10:36:16;20.93;;;8.27;;
17380;SDS011;8808;52.478;13.378;2023-10-19T10:38:44;18.93;;;8.20;;
17380;SDS011;8808;52.478;13.378;2023-10-19T10:41:11;23.07;;;8.03;;
17380;SDS011;8808;52.478;13.378;2023-10-19T10:43:49;19.93;;;7.97;;
17380;SDS011;8808;52.478;13.378;2023-10-19T10:46:18;14.10;;;6.83;;
17380;SDS011;8808;52.478;13.378;2023-10-19T10:48:47;16.63;;;8.53;;
17380;SDS011;8808;52.478;13.378;2023-10-19T10:51:15;27.50;;;7.97;;
17380;SDS011;8808;52.478;13.378;2023-10-19T10:53:43;21.50;;;8.93;;
17380;SDS011;8808;52.478;13.378;2023-10-19T10:56:12;18.53;;;8.23;;
17380;SDS011;8808;52.478;13.378;2023-10-19T10:58:39;16.97;;;8.47;;
17380;SDS011;8808;52.478;13.378;2023-10-19T11:01:06;15.77;;;7.60;;
17380;SDS011;8808;52.478;13.378;2023-10-19T11:03:35;26.33;;;8.63;;
17380;SDS011;8808;52.478;13.378;2023-10-19T11:06:06;22.20;;;9.03;;
17380;SDS011;8808;52.478;13.378;2023-10-19T11:08:34;22.53;;;8.57;;
17380;SDS011;8808;52.478;13.378;2023-10-19T11:11:02;12.13;;;7.20;;
17380;SDS011;8808;52.478;13.378;2023-10-19T11:13:31;16.43;;;7.67;;
17380;SDS011;8808;52.478;13.378;2023-10-19T11:16:00;16.30;;;7.07;;
17380;SDS011;8808;52.478;13.378;2023-10-19T11:18:31;13.33;;;7.27;;
17380;SDS011;8808;52.478;13.378;2023-10-19T11:21:00;21.00;;;8.23;;
17380;SDS011;8808;52.478;13.378;2023-10-19T11:23:41;19.07;;;7.10;;
17380;SDS011;8808;52.478;13.378;2023-10-19T11:26:09;13.43;;;6.80;;
17380;SDS011;8808;52.478;13.378;2023-10-19T11:28:37;17.63;;;7.30;;
17380;SDS011;8808;52.478;13.378;2023-10-19T11:31:16;23.73;;;8.93;;
17380;SDS011;8808;52.478;13.378;2023-10-19T11:33:44;21.37;;;9.40;;
17380;SDS011;8808;52.478;13.378;2023-10-19T11:36:13;19.70;;;8.23;;
17380;SDS011;8808;52.478;13.378;2023-10-19T11:38:42;14.93;;;6.83;;
17380;SDS011;8808;52.478;13.378;2023-10-19T11:41:11;23.60;;;9.57;;
17380;SDS011;8808;52.478;13.378;2023-10-19T11:43:38;23.77;;;9.17;;
17380;SDS011;8808;52.478;13.378;2023-10-19T11:46:05;19.53;;;8.10;;
17380;SDS011;8808;52.478;13.378;2023-10-19T11:48:33;16.77;;;7.57;;
17380;SDS011;8808;52.478;13.378;2023-10-19T11:51:01;19.43;;;8.80;;
17380;SDS011;8808;52.478;13.378;2023-10-19T11:53:30;16.60;;;8.80;;
17380;SDS011;8808;52.478;13.378;2023-10-19T11:56:01;23.47;;;9.77;;
17380;SDS011;8808;52.478;13.378;2023-10-19T11:58:30;23.03;;;9.80;;
17380;SDS011;8808;52.478;13.378;2023-10-19T12:00:59;20.47;;;9.30;;
17380;SDS011;8808;52.478;13.378;2023-10-19T12:03:28;27.03;;;9.83;;
17380;SDS011;8808;52.478;13.378;2023-10-19T12:05:55;21.23;;;8.37;;
17380;SDS011;8808;52.478;13.378;2023-10-19T12:08:22;24.43;;;9.93;;
17380;SDS011;8808;52.478;13.378;2023-10-19T12:10:50;24.33;;;9.57;;
17380;SDS011;8808;52.478;13.378;2023-10-19T12:13:19;24.67;;;10.23;;
17380;SDS011;8808;52.478;13.378;2023-10-19T12:15:46;21.53;;;9.00;;
17380;SDS011;8808;52.478;13.378;2023-10-19T12:18:18;18.20;;;8.60;;
17380;SDS011;8808;52.478;13.378;2023-10-19T12:20:45;21.20;;;9.37;;
17380;SDS011;8808;52.478;13.378;2023-10-19T12:23:12;19.87;;;9.53;;
17380;SDS011;8808;52.478;13.378;2023-10-19T12:25:40;19.43;;;9.17;;
17380;SDS011;8808;52.478;13.378;2023-10-19T12:28:08;18.50;;;9.03;;
17380;SDS011;8808;52.478;13.378;2023-10-19T12:30:40;20.20;;;9.57;;
17380;SDS011;8808;52.478;13.378;2023-10-19T12:33:07;20.87;;;9.73;;
17380;SDS011;8808;52.478;13.378;2023-10-19T12:35:37;18.30;;;8.90;;
17380;SDS011;8808;52.478;13.378;2023-10-19T12:38:19;19.00;;;9.33;;
17380;SDS011;8808;52.478;13.378;2023-10-19T12:40:46;21.13;;;9.57;;
17380;SDS011;8808;52.478;13.378;2023-10-19T12:43:15;22.07;;;9.20;;
17380;SDS011;8808;52.478;13.378;2023-10-19T12:45:45;22.17;;;10.23;;
17380;SDS011;8808;52.478;13.378;2023-10-19T12:48:18;22.50;;;10.63;;
17380;SDS011;8808;52.478;13.378;2023-10-19T12:50:46;23.47;;;10.20;;
17380;SDS011;8808;52.478;13.378;2023-10-19T12:53:13;24.00;;;11.00;;
17380;SDS011;8808;52.478;13.378;2023-10-19T12:55:40;25.60;;;9.23;;
17380;SDS011;8808;52.478;13.378;2023-10-19T12:58:08;24.40;;;11.27;;
17380;SDS011;8808;52.478;13.378;2023-10-19T13:00:36;26.17;;;10.57;;
17380;SDS011;8808;52.478;13.378;2023-10-19T13:03:08;21.00;;;9.47;;
17380;SDS011;8808;52.478;13.378;2023-10-19T13:05:38;19.97;;;10.03;;
17380;SDS011;8808;52.478;13.378;2023-10-19T13:08:06;24.03;;;10.40;;
17380;SDS011;8808;52.478;13.378;2023-10-19T13:10:34;22.13;;;9.73;;
17380;SDS011;8808;52.478;13.378;2023-10-19T13:13:03;22.83;;;11.00;;
17380;SDS011;8808;52.478;13.378;2023-10-19T13:15:32;20.23;;;9.90;;
17380;SDS011;8808;52.478;13.378;2023-10-19T13:18:00;20.30;;;9.30;;
17380;SDS011;8808;52.478;13.378;2023-10-19T13:20:29;22.37;;;11.07;;
17380;SDS011;8808;52.478;13.378;2023-10-19T13:23:00;27.53;;;11.93;;
17380;SDS011;8808;52.478;13.378;2023-10-19T13:25:29;24.97;;;9.73;;
17380;SDS011;8808;52.478;13.378;2023-10-19T13:28:07;25.77;;;11.67;;
17380;SDS011;8808;52.478;13.378;2023-10-19T13:30:38;27.10;;;10.60;;
17380;SDS011;8808;52.478;13.378;2023-10-19T13:33:05;30.80;;;12.67;;
17380;SDS011;8808;52.478;13.378;2023-10-19T13:35:35;39.63;;;14.13;;
17380;SDS011;8808;52.478;13.378;2023-10-19T13:38:03;33.17;;;11.40;;
17380;SDS011;8808;52.478;13.378;2023-10-19T13:40:31;34.03;;;12.90;;
17380;SDS011;8808;52.478;13.378;2023-10-19T13:42:58;26.07;;;12.27;;
17380;SDS011;8808;52.478;13.378;2023-10-19T13:45:26;31.20;;;14.13;;
17380;SDS011;8808;52.478;13.378;2023-10-19T13:47:53;25.63;;;12.33;;
17380;SDS011;8808;52.478;13.378;2023-10-19T13:50:23;39.37;;;14.67;;
17380;SDS011;8808;52.478;13.378;2023-10-19T13:52:53;34.57;;;13.23;;
17380;SDS011;8808;52.478;13.378;2023-10-19T13:55:21;33.27;;;13.87;;
17380;SDS011;8808;52.478;13.378;2023-10-19T13:57:49;34.90;;;15.90;;
17380;SDS011;8808;52.478;13.378;2023-10-19T14:00:16;30.93;;;14.87;;
17380;SDS011;8808;52.478;13.378;2023-10-19T14:02:49;31.70;;;12.83;;
17380;SDS011;8808;52.478;13.378;2023-10-19T14:05:16;32.87;;;15.17;;
17380;SDS011;8808;52.478;13.378;2023-10-19T14:07:44;37.87;;;17.03;;
17380;SDS011;8808;52.478;13.378;2023-10-19T14:10:14;40.97;;;17.70;;
17380;SDS011;8808;52.478;13.378;2023-10-19T14:12:41;25.70;;;12.60;;
17380;SDS011;8808;52.478;13.378;2023-10-19T14:15:12;29.07;;;12.53;;
17380;SDS011;8808;52.478;13.378;2023-10-19T14:17:40;25.90;;;10.70;;
17380;SDS011;8808;52.478;13.378;2023-10-19T14:20:07;25.40;;;11.33;;
17380;SDS011;8808;52.478;13.378;2023-10-19T14:22:38;21.20;;;10.90;;
17380;SDS011;8808;52.478;13.378;2023-10-19T14:25:06;30.40;;;12.40;;
17380;SDS011;8808;52.478;13.378;2023-10-19T14:27:39;24.73;;;10.80;;
17380;SDS011;8808;52.478;13.378;2023-10-19T14:30:07;29.37;;;12.53;;
17380;SDS011;8808;52.478;13.378;2023-10-19T14:32:36;22.80;;;11.70;;
17380;SDS011;8808;52.478;13.378;2023-10-19T14:35:04;28.00;;;12.53;;
17380;SDS011;8808;52.478;13.378;2023-10-19T14:37:34;35.13;;;15.37;;
17380;SDS011;8808;52.478;13.378;2023-10-19T14:40:03;28.70;;;11.57;;
17380;SDS011;8808;52.478;13.378;2023-10-19T14:42:34;26.57;;;11.43;;
17380;SDS011;8808;52.478;13.378;2023-10-19T14:45:03;29.20;;;12.03;;
17380;SDS011;8808;52.478;13.378;2023-10-19T14:47:34;22.03;;;10.33;;
17380;SDS011;8808;52.478;13.378;2023-10-19T14:50:02;28.50;;;12.47;;